sensor_id;sensor_type;location;lat;lon;timestamp;P1;durP1;ratioP1;P2;durP2;ratioP2
6785;SDS011;3430;51.192;6.048;2023-03-01T00:01:58;3.40;;;3.07;;
6785;SDS011;3430;51.192;6.048;2023-03-01T00:04:24;3.63;;;3.33;;
6785;SDS011;3430;51.192;6.048;2023-03-01T00:06:49;5.90;;;3.80;;
6785;SDS011;3430;51.192;6.048;2023-03-01T00:09:14;3.63;;;3.33;;
6785;SDS011;3430;51.192;6.048;2023-03-01T00:11:40;3.73;;;3.13;;
6785;SDS011;3430;51.192;6.048;2023-03-01T00:14:05;4.03;;;3.63;;
6785;SDS011;3430;51.192;6.048;2023-03-01T00:16:36;3.17;;;2.97;;
6785;SDS011;3430;51.192;6.048;2023-03-01T00:19:03;3.57;;;3.27;;
6785;SDS011;3430;51.192;6.048;2023-03-01T00:21:29;4.07;;;3.67;;
6785;SDS011;3430;51.192;6.048;2023-03-01T00:23:54;3.40;;;3.10;;
6785;SDS011;3430;51.192;6.048;2023-03-01T00:26:23;3.90;;;3.60;;
6785;SDS011;3430;51.192;6.048;2023-03-01T00:28:50;5.50;;;3.77;;
6785;SDS011;3430;51.192;6.048;2023-03-01T00:31:17;3.63;;;3.30;;
6785;SDS011;3430;51.192;6.048;2023-03-01T00:33:43;4.20;;;3.20;;
6785;SDS011;3430;51.192;6.048;2023-03-01T00:36:09;4.13;;;3.83;;
6785;SDS011;3430;51.192;6.048;2023-03-01T00:38:36;3.73;;;3.40;;
6785;SDS011;3430;51.192;6.048;2023-03-01T00:41:08;3.53;;;3.10;;
6785;SDS011;3430;51.192;6.048;2023-03-01T00:43:34;5.23;;;3.40;;
6785;SDS011;3430;51.192;6.048;2023-03-01T00:46:11;4.17;;;3.50;;
6785;SDS011;3430;51.192;6.048;2023-03-01T00:48:36;3.87;;;3.57;;
6785;SDS011;3430;51.192;6.048;2023-03-01T00:53:30;3.57;;;3.23;;
6785;SDS011;3430;51.192;6.048;2023-03-01T00:55:56;3.47;;;3.27;;
6785;SDS011;3430;51.192;6.048;2023-03-01T00:58:22;3.47;;;3.17;;
6785;SDS011;3430;51.192;6.048;2023-03-01T01:00:47;3.73;;;3.37;;
6785;SDS011;3430;51.192;6.048;2023-03-01T01:03:12;4.57;;;3.40;;
6785;SDS011;3430;51.192;6.048;2023-03-01T01:05:37;3.40;;;3.10;;
6785;SDS011;3430;51.192;6.048;2023-03-01T01:08:03;4.37;;;3.70;;
6785;SDS011;3430;51.192;6.048;2023-03-01T01:10:28;3.80;;;3.50;;
6785;SDS011;3430;51.192;6.048;2023-03-01T01:12:53;3.60;;;3.33;;
6785;SDS011;3430;51.192;6.048;2023-03-01T01:15:18;4.13;;;3.83;;
6785;SDS011;3430;51.192;6.048;2023-03-01T01:17:44;3.77;;;3.37;;
6785;SDS011;3430;51.192;6.048;2023-03-01T01:20:09;3.73;;;3.43;;
6785;SDS011;3430;51.192;6.048;2023-03-01T01:22:35;3.87;;;3.50;;
6785;SDS011;3430;51.192;6.048;2023-03-01T01:25:00;3.33;;;3.03;;
6785;SDS011;3430;51.192;6.048;2023-03-01T01:27:25;3.37;;;3.07;;
6785;SDS011;3430;51.192;6.048;2023-03-01T01:29:52;3.40;;;3.10;;
6785;SDS011;3430;51.192;6.048;2023-03-01T01:32:17;4.13;;;3.73;;
6785;SDS011;3430;51.192;6.048;2023-03-01T01:34:43;3.97;;;3.47;;
6785;SDS011;3430;51.192;6.048;2023-03-01T01:37:08;3.63;;;3.33;;
6785;SDS011;3430;51.192;6.048;2023-03-01T01:39:36;3.47;;;3.10;;
6785;SDS011;3430;51.192;6.048;2023-03-01T01:42:04;3.90;;;3.60;;
6785;SDS011;3430;51.192;6.048;2023-03-01T01:44:30;3.97;;;2.90;;
6785;SDS011;3430;51.192;6.048;2023-03-01T01:51:49;3.73;;;3.37;;
6785;SDS011;3430;51.192;6.048;2023-03-01T01:54:22;4.07;;;3.70;;
6785;SDS011;3430;51.192;6.048;2023-03-01T01:56:50;3.47;;;3.17;;
6785;SDS011;3430;51.192;6.048;2023-03-01T01:59:16;3.77;;;3.47;;
6785;SDS011;3430;51.192;6.048;2023-03-01T02:01:42;3.33;;;3.03;;
6785;SDS011;3430;51.192;6.048;2023-03-01T02:04:08;3.83;;;3.40;;
6785;SDS011;3430;51.192;6.048;2023-03-01T02:06:57;3.63;;;3.23;;
6785;SDS011;3430;51.192;6.048;2023-03-01T02:09:18;3.60;;;3.30;;
6785;SDS011;3430;51.192;6.048;2023-03-01T02:11:45;4.13;;;3.77;;
6785;SDS011;3430;51.192;6.048;2023-03-01T02:14:12;3.40;;;3.20;;
6785;SDS011;3430;51.192;6.048;2023-03-01T02:16:37;3.70;;;3.33;;
6785;SDS011;3430;51.192;6.048;2023-03-01T02:19:02;3.87;;;3.47;;
6785;SDS011;3430;51.192;6.048;2023-03-01T02:21:45;3.77;;;3.47;;
6785;SDS011;3430;51.192;6.048;2023-03-01T02:26:51;3.60;;;3.30;;
6785;SDS011;3430;51.192;6.048;2023-03-01T02:29:18;5.83;;;3.47;;
6785;SDS011;3430;51.192;6.048;2023-03-01T02:31:43;3.50;;;3.20;;
6785;SDS011;3430;51.192;6.048;2023-03-01T02:34:14;3.83;;;3.43;;
6785;SDS011;3430;51.192;6.048;2023-03-01T02:37:22;4.40;;;3.73;;
6785;SDS011;3430;51.192;6.048;2023-03-01T02:39:33;4.20;;;3.80;;
6785;SDS011;3430;51.192;6.048;2023-03-01T02:41:59;4.00;;;3.60;;
6785;SDS011;3430;51.192;6.048;2023-03-01T02:44:25;4.10;;;3.70;;
6785;SDS011;3430;51.192;6.048;2023-03-01T02:46:51;4.50;;;3.97;;
6785;SDS011;3430;51.192;6.048;2023-03-01T02:51:52;3.67;;;3.37;;
6785;SDS011;3430;51.192;6.048;2023-03-01T02:54:25;4.60;;;3.50;;
6785;SDS011;3430;51.192;6.048;2023-03-01T02:56:53;4.03;;;3.70;;
6785;SDS011;3430;51.192;6.048;2023-03-01T02:59:19;3.83;;;3.50;;
6785;SDS011;3430;51.192;6.048;2023-03-01T03:01:45;3.90;;;3.50;;
6785;SDS011;3430;51.192;6.048;2023-03-01T03:04:13;4.17;;;3.30;;
6785;SDS011;3430;51.192;6.048;2023-03-01T03:06:43;3.70;;;3.40;;
6785;SDS011;3430;51.192;6.048;2023-03-01T03:09:09;4.53;;;3.67;;
6785;SDS011;3430;51.192;6.048;2023-03-01T03:11:35;5.80;;;4.00;;
6785;SDS011;3430;51.192;6.048;2023-03-01T03:14:02;4.07;;;3.67;;
6785;SDS011;3430;51.192;6.048;2023-03-01T03:16:27;4.37;;;3.77;;
6785;SDS011;3430;51.192;6.048;2023-03-01T03:18:54;5.77;;;3.87;;
6785;SDS011;3430;51.192;6.048;2023-03-01T03:21:20;3.80;;;3.50;;
6785;SDS011;3430;51.192;6.048;2023-03-01T03:23:45;4.93;;;3.80;;
6785;SDS011;3430;51.192;6.048;2023-03-01T03:26:10;5.03;;;3.80;;
6785;SDS011;3430;51.192;6.048;2023-03-01T03:28:38;5.50;;;3.70;;
6785;SDS011;3430;51.192;6.048;2023-03-01T03:31:06;3.90;;;3.60;;
6785;SDS011;3430;51.192;6.048;2023-03-01T03:33:32;3.77;;;3.47;;
6785;SDS011;3430;51.192;6.048;2023-03-01T03:35:58;4.07;;;3.73;;
6785;SDS011;3430;51.192;6.048;2023-03-01T03:38:23;4.00;;;3.70;;
6785;SDS011;3430;51.192;6.048;2023-03-01T03:40:50;3.87;;;3.47;;
6785;SDS011;3430;51.192;6.048;2023-03-01T03:43:17;3.80;;;3.50;;
6785;SDS011;3430;51.192;6.048;2023-03-01T03:45:46;3.93;;;3.57;;
6785;SDS011;3430;51.192;6.048;2023-03-01T03:48:12;4.20;;;3.90;;
6785;SDS011;3430;51.192;6.048;2023-03-01T03:50:38;4.37;;;3.90;;
6785;SDS011;3430;51.192;6.048;2023-03-01T03:53:04;4.23;;;3.60;;
6785;SDS011;3430;51.192;6.048;2023-03-01T03:55:30;4.60;;;3.73;;
6785;SDS011;3430;51.192;6.048;2023-03-01T03:57:59;4.60;;;3.83;;
6785;SDS011;3430;51.192;6.048;2023-03-01T04:00:31;3.53;;;3.23;;
6785;SDS011;3430;51.192;6.048;2023-03-01T04:02:57;4.50;;;3.60;;
6785;SDS011;3430;51.192;6.048;2023-03-01T04:05:24;5.33;;;3.70;;
6785;SDS011;3430;51.192;6.048;2023-03-01T04:07:49;4.17;;;3.77;;
6785;SDS011;3430;51.192;6.048;2023-03-01T04:10:25;4.20;;;3.43;;
6785;SDS011;3430;51.192;6.048;2023-03-01T04:12:51;3.27;;;3.03;;
6785;SDS011;3430;51.192;6.048;2023-03-01T04:15:17;4.20;;;3.80;;
6785;SDS011;3430;51.192;6.048;2023-03-01T04:17:43;3.60;;;3.30;;
6785;SDS011;3430;51.192;6.048;2023-03-01T04:20:09;3.70;;;3.33;;
6785;SDS011;3430;51.192;6.048;2023-03-01T04:22:36;4.40;;;4.00;;
6785;SDS011;3430;51.192;6.048;2023-03-01T04:25:01;4.67;;;4.27;;
6785;SDS011;3430;51.192;6.048;2023-03-01T04:27:27;4.53;;;3.73;;
6785;SDS011;3430;51.192;6.048;2023-03-01T04:29:52;4.63;;;4.13;;
6785;SDS011;3430;51.192;6.048;2023-03-01T04:32:17;5.60;;;3.80;;
6785;SDS011;3430;51.192;6.048;2023-03-01T04:34:43;4.87;;;4.03;;
6785;SDS011;3430;51.192;6.048;2023-03-01T04:37:08;5.77;;;4.03;;
6785;SDS011;3430;51.192;6.048;2023-03-01T04:39:34;4.20;;;3.67;;
6785;SDS011;3430;51.192;6.048;2023-03-01T04:42:10;5.40;;;3.97;;
6785;SDS011;3430;51.192;6.048;2023-03-01T04:44:35;4.20;;;3.90;;
6785;SDS011;3430;51.192;6.048;2023-03-01T04:47:00;5.87;;;4.13;;
6785;SDS011;3430;51.192;6.048;2023-03-01T04:49:26;4.30;;;3.90;;
6785;SDS011;3430;51.192;6.048;2023-03-01T04:51:51;6.87;;;3.90;;
6785;SDS011;3430;51.192;6.048;2023-03-01T04:54:16;5.00;;;4.03;;
6785;SDS011;3430;51.192;6.048;2023-03-01T04:56:41;4.50;;;4.10;;
6785;SDS011;3430;51.192;6.048;2023-03-01T04:59:07;5.43;;;4.30;;
6785;SDS011;3430;51.192;6.048;2023-03-01T05:01:35;6.03;;;4.40;;
6785;SDS011;3430;51.192;6.048;2023-03-01T05:04:00;6.23;;;4.60;;
6785;SDS011;3430;51.192;6.048;2023-03-01T05:06:28;5.03;;;4.43;;
6785;SDS011;3430;51.192;6.048;2023-03-01T05:08:53;4.43;;;3.80;;
6785;SDS011;3430;51.192;6.048;2023-03-01T05:11:18;4.57;;;4.17;;
6785;SDS011;3430;51.192;6.048;2023-03-01T05:13:44;4.13;;;3.63;;
6785;SDS011;3430;51.192;6.048;2023-03-01T05:16:09;5.83;;;4.47;;
6785;SDS011;3430;51.192;6.048;2023-03-01T05:18:38;4.40;;;4.00;;
6785;SDS011;3430;51.192;6.048;2023-03-01T05:21:05;6.00;;;4.27;;
6785;SDS011;3430;51.192;6.048;2023-03-01T05:23:31;5.07;;;4.57;;
6785;SDS011;3430;51.192;6.048;2023-03-01T05:26:03;4.93;;;3.93;;
6785;SDS011;3430;51.192;6.048;2023-03-01T05:28:29;5.67;;;4.30;;
6785;SDS011;3430;51.192;6.048;2023-03-01T05:30:55;4.37;;;3.93;;
6785;SDS011;3430;51.192;6.048;2023-03-01T05:33:20;7.00;;;3.73;;
6785;SDS011;3430;51.192;6.048;2023-03-01T05:35:47;6.03;;;4.10;;
6785;SDS011;3430;51.192;6.048;2023-03-01T05:38:13;4.20;;;3.80;;
6785;SDS011;3430;51.192;6.048;2023-03-01T05:40:40;4.43;;;4.03;;
6785;SDS011;3430;51.192;6.048;2023-03-01T05:43:06;4.30;;;3.90;;
6785;SDS011;3430;51.192;6.048;2023-03-01T05:45:32;4.83;;;4.10;;
6785;SDS011;3430;51.192;6.048;2023-03-01T05:47:58;5.03;;;4.10;;
6785;SDS011;3430;51.192;6.048;2023-03-01T05:50:25;4.97;;;4.20;;
6785;SDS011;3430;51.192;6.048;2023-03-01T05:52:51;5.00;;;4.50;;
6785;SDS011;3430;51.192;6.048;2023-03-01T05:55:19;4.63;;;3.93;;
6785;SDS011;3430;51.192;6.048;2023-03-01T05:57:44;4.33;;;3.93;;
6785;SDS011;3430;51.192;6.048;2023-03-01T06:00:10;4.00;;;3.67;;
6785;SDS011;3430;51.192;6.048;2023-03-01T06:02:36;4.57;;;3.97;;
6785;SDS011;3430;51.192;6.048;2023-03-01T06:05:03;6.40;;;4.80;;
6785;SDS011;3430;51.192;6.048;2023-03-01T06:07:28;4.83;;;4.27;;
6785;SDS011;3430;51.192;6.048;2023-03-01T06:09:54;4.40;;;4.00;;
6785;SDS011;3430;51.192;6.048;2023-03-01T06:12:19;5.00;;;4.20;;
6785;SDS011;3430;51.192;6.048;2023-03-01T06:14:45;5.13;;;4.63;;
6785;SDS011;3430;51.192;6.048;2023-03-01T06:17:11;4.70;;;4.20;;
6785;SDS011;3430;51.192;6.048;2023-03-01T06:19:36;4.73;;;3.97;;
6785;SDS011;3430;51.192;6.048;2023-03-01T06:22:01;4.73;;;4.27;;
6785;SDS011;3430;51.192;6.048;2023-03-01T06:24:27;4.90;;;4.40;;
6785;SDS011;3430;51.192;6.048;2023-03-01T06:26:53;5.77;;;4.70;;
6785;SDS011;3430;51.192;6.048;2023-03-01T06:29:19;4.53;;;4.03;;
6785;SDS011;3430;51.192;6.048;2023-03-01T06:31:44;4.70;;;4.33;;
6785;SDS011;3430;51.192;6.048;2023-03-01T06:34:10;4.50;;;4.10;;
6785;SDS011;3430;51.192;6.048;2023-03-01T06:36:38;5.33;;;4.37;;
6785;SDS011;3430;51.192;6.048;2023-03-01T06:39:04;4.67;;;3.73;;
6785;SDS011;3430;51.192;6.048;2023-03-01T06:41:30;4.93;;;4.43;;
6785;SDS011;3430;51.192;6.048;2023-03-01T06:43:56;5.17;;;4.67;;
6785;SDS011;3430;51.192;6.048;2023-03-01T06:46:21;7.27;;;4.00;;
6785;SDS011;3430;51.192;6.048;2023-03-01T06:48:47;4.50;;;4.10;;
6785;SDS011;3430;51.192;6.048;2023-03-01T06:51:12;6.63;;;4.57;;
6785;SDS011;3430;51.192;6.048;2023-03-01T06:53:37;4.37;;;3.87;;
6785;SDS011;3430;51.192;6.048;2023-03-01T06:56:03;4.70;;;4.23;;
6785;SDS011;3430;51.192;6.048;2023-03-01T06:58:28;4.77;;;4.37;;
6785;SDS011;3430;51.192;6.048;2023-03-01T07:00:54;4.67;;;4.27;;
6785;SDS011;3430;51.192;6.048;2023-03-01T07:03:19;7.23;;;4.63;;
6785;SDS011;3430;51.192;6.048;2023-03-01T07:05:44;4.57;;;4.17;;
6785;SDS011;3430;51.192;6.048;2023-03-01T07:08:10;6.00;;;4.53;;
6785;SDS011;3430;51.192;6.048;2023-03-01T07:10:35;5.30;;;4.60;;
6785;SDS011;3430;51.192;6.048;2023-03-01T07:13:00;6.13;;;4.80;;
6785;SDS011;3430;51.192;6.048;2023-03-01T07:15:26;5.10;;;4.60;;
6785;SDS011;3430;51.192;6.048;2023-03-01T07:17:51;4.73;;;4.33;;
6785;SDS011;3430;51.192;6.048;2023-03-01T07:20:20;4.57;;;4.10;;
6785;SDS011;3430;51.192;6.048;2023-03-01T07:22:50;4.97;;;4.47;;
6785;SDS011;3430;51.192;6.048;2023-03-01T07:25:15;5.43;;;4.30;;
6785;SDS011;3430;51.192;6.048;2023-03-01T07:27:41;5.83;;;4.73;;
6785;SDS011;3430;51.192;6.048;2023-03-01T07:30:06;6.13;;;4.40;;
6785;SDS011;3430;51.192;6.048;2023-03-01T07:32:32;7.00;;;4.47;;
6785;SDS011;3430;51.192;6.048;2023-03-01T07:34:57;5.40;;;4.90;;
6785;SDS011;3430;51.192;6.048;2023-03-01T07:37:23;4.90;;;4.43;;
6785;SDS011;3430;51.192;6.048;2023-03-01T07:39:48;5.30;;;4.70;;
6785;SDS011;3430;51.192;6.048;2023-03-01T07:42:14;4.87;;;4.37;;
6785;SDS011;3430;51.192;6.048;2023-03-01T07:44:39;5.83;;;4.73;;
6785;SDS011;3430;51.192;6.048;2023-03-01T07:47:04;5.60;;;5.00;;
6785;SDS011;3430;51.192;6.048;2023-03-01T07:49:30;7.63;;;4.83;;
6785;SDS011;3430;51.192;6.048;2023-03-01T07:51:55;5.73;;;4.50;;
6785;SDS011;3430;51.192;6.048;2023-03-01T07:54:21;7.80;;;4.90;;
6785;SDS011;3430;51.192;6.048;2023-03-01T07:56:46;4.90;;;4.40;;
6785;SDS011;3430;51.192;6.048;2023-03-01T07:59:11;5.00;;;4.57;;
6785;SDS011;3430;51.192;6.048;2023-03-01T08:01:37;6.67;;;4.77;;
6785;SDS011;3430;51.192;6.048;2023-03-01T08:04:02;4.90;;;4.43;;
6785;SDS011;3430;51.192;6.048;2023-03-01T08:06:29;5.23;;;4.73;;
6785;SDS011;3430;51.192;6.048;2023-03-01T08:08:56;4.50;;;4.10;;
6785;SDS011;3430;51.192;6.048;2023-03-01T08:11:23;4.70;;;4.30;;
6785;SDS011;3430;51.192;6.048;2023-03-01T08:13:48;5.60;;;4.97;;
6785;SDS011;3430;51.192;6.048;2023-03-01T08:16:14;4.93;;;4.43;;
6785;SDS011;3430;51.192;6.048;2023-03-01T08:18:40;5.20;;;4.43;;
6785;SDS011;3430;51.192;6.048;2023-03-01T08:21:07;5.43;;;4.87;;
6785;SDS011;3430;51.192;6.048;2023-03-01T08:23:33;9.10;;;4.77;;
6785;SDS011;3430;51.192;6.048;2023-03-01T08:26:03;5.20;;;4.70;;
6785;SDS011;3430;51.192;6.048;2023-03-01T08:28:29;8.07;;;5.20;;
6785;SDS011;3430;51.192;6.048;2023-03-01T08:30:55;7.27;;;4.33;;
6785;SDS011;3430;51.192;6.048;2023-03-01T08:33:20;6.43;;;4.57;;
6785;SDS011;3430;51.192;6.048;2023-03-01T08:35:45;5.93;;;5.00;;
6785;SDS011;3430;51.192;6.048;2023-03-01T08:38:11;8.40;;;5.83;;
6785;SDS011;3430;51.192;6.048;2023-03-01T08:40:36;5.93;;;4.90;;
6785;SDS011;3430;51.192;6.048;2023-03-01T08:43:01;8.27;;;5.37;;
6785;SDS011;3430;51.192;6.048;2023-03-01T08:45:27;6.80;;;5.20;;
6785;SDS011;3430;51.192;6.048;2023-03-01T08:47:52;5.77;;;5.17;;
6785;SDS011;3430;51.192;6.048;2023-03-01T08:50:18;7.30;;;5.43;;
6785;SDS011;3430;51.192;6.048;2023-03-01T08:52:43;6.53;;;5.17;;
6785;SDS011;3430;51.192;6.048;2023-03-01T08:55:09;7.93;;;5.50;;
6785;SDS011;3430;51.192;6.048;2023-03-01T08:57:34;5.47;;;4.97;;
6785;SDS011;3430;51.192;6.048;2023-03-01T08:59:59;8.03;;;4.80;;
6785;SDS011;3430;51.192;6.048;2023-03-01T09:02:25;5.63;;;5.13;;
6785;SDS011;3430;51.192;6.048;2023-03-01T09:04:50;7.97;;;4.63;;
6785;SDS011;3430;51.192;6.048;2023-03-01T09:07:15;6.87;;;5.43;;
6785;SDS011;3430;51.192;6.048;2023-03-01T09:09:41;7.87;;;5.30;;
6785;SDS011;3430;51.192;6.048;2023-03-01T09:12:06;6.67;;;5.50;;
6785;SDS011;3430;51.192;6.048;2023-03-01T09:14:32;5.87;;;5.27;;
6785;SDS011;3430;51.192;6.048;2023-03-01T09:16:58;8.53;;;4.77;;
6785;SDS011;3430;51.192;6.048;2023-03-01T09:19:23;11.73;;;5.60;;
6785;SDS011;3430;51.192;6.048;2023-03-01T09:21:48;7.77;;;6.30;;
6785;SDS011;3430;51.192;6.048;2023-03-01T09:24:17;8.97;;;5.47;;
6785;SDS011;3430;51.192;6.048;2023-03-01T09:26:43;6.70;;;5.97;;
6785;SDS011;3430;51.192;6.048;2023-03-01T09:29:11;8.37;;;5.23;;
6785;SDS011;3430;51.192;6.048;2023-03-01T09:31:36;6.93;;;5.83;;
6785;SDS011;3430;51.192;6.048;2023-03-01T09:34:02;8.20;;;5.47;;
6785;SDS011;3430;51.192;6.048;2023-03-01T09:36:31;7.20;;;6.17;;
6785;SDS011;3430;51.192;6.048;2023-03-01T09:38:59;6.60;;;5.47;;
6785;SDS011;3430;51.192;6.048;2023-03-01T09:44:18;7.70;;;5.97;;
6785;SDS011;3430;51.192;6.048;2023-03-01T09:46:46;8.60;;;5.80;;
6785;SDS011;3430;51.192;6.048;2023-03-01T09:49:21;8.63;;;5.07;;
6785;SDS011;3430;51.192;6.048;2023-03-01T09:51:53;7.70;;;5.83;;
6785;SDS011;3430;51.192;6.048;2023-03-01T09:54:19;8.50;;;4.97;;
6785;SDS011;3430;51.192;6.048;2023-03-01T09:56:47;9.07;;;5.57;;
6785;SDS011;3430;51.192;6.048;2023-03-01T10:09:36;5.70;;;5.10;;
6785;SDS011;3430;51.192;6.048;2023-03-01T10:12:02;6.57;;;5.83;;
6785;SDS011;3430;51.192;6.048;2023-03-01T10:14:34;7.40;;;5.63;;
6785;SDS011;3430;51.192;6.048;2023-03-01T10:17:17;6.67;;;5.30;;
6785;SDS011;3430;51.192;6.048;2023-03-01T10:19:45;8.30;;;5.80;;
6785;SDS011;3430;51.192;6.048;2023-03-01T10:22:27;8.53;;;5.83;;
6785;SDS011;3430;51.192;6.048;2023-03-01T10:24:53;10.50;;;6.53;;
6785;SDS011;3430;51.192;6.048;2023-03-01T10:30:19;8.93;;;5.63;;
6785;SDS011;3430;51.192;6.048;2023-03-01T10:32:37;7.10;;;5.93;;
6785;SDS011;3430;51.192;6.048;2023-03-01T10:35:19;9.63;;;5.77;;
6785;SDS011;3430;51.192;6.048;2023-03-01T10:37:58;10.10;;;5.93;;
6785;SDS011;3430;51.192;6.048;2023-03-01T10:40:27;7.40;;;5.60;;
6785;SDS011;3430;51.192;6.048;2023-03-01T10:42:52;8.53;;;6.17;;
6785;SDS011;3430;51.192;6.048;2023-03-01T10:45:35;9.00;;;6.13;;
6785;SDS011;3430;51.192;6.048;2023-03-01T10:50:29;8.37;;;6.00;;
6785;SDS011;3430;51.192;6.048;2023-03-01T10:52:55;9.13;;;5.73;;
6785;SDS011;3430;51.192;6.048;2023-03-01T10:57:46;6.27;;;5.63;;
6785;SDS011;3430;51.192;6.048;2023-03-01T11:02:42;7.23;;;5.80;;
6785;SDS011;3430;51.192;6.048;2023-03-01T11:07:47;7.00;;;5.30;;
6785;SDS011;3430;51.192;6.048;2023-03-01T11:10:15;10.40;;;7.00;;
6785;SDS011;3430;51.192;6.048;2023-03-01T11:12:41;11.93;;;5.83;;
6785;SDS011;3430;51.192;6.048;2023-03-01T11:15:08;7.70;;;5.93;;
6785;SDS011;3430;51.192;6.048;2023-03-01T11:17:44;6.37;;;5.40;;
6785;SDS011;3430;51.192;6.048;2023-03-01T11:22:38;6.23;;;5.63;;
6785;SDS011;3430;51.192;6.048;2023-03-01T11:25:08;8.10;;;5.57;;
6785;SDS011;3430;51.192;6.048;2023-03-01T11:27:38;7.50;;;5.37;;
6785;SDS011;3430;51.192;6.048;2023-03-01T11:32:47;9.00;;;5.77;;
6785;SDS011;3430;51.192;6.048;2023-03-01T11:35:19;5.60;;;5.00;;
6785;SDS011;3430;51.192;6.048;2023-03-01T11:37:58;10.07;;;5.77;;
6785;SDS011;3430;51.192;6.048;2023-03-01T11:42:53;9.47;;;6.57;;
6785;SDS011;3430;51.192;6.048;2023-03-01T11:45:19;7.53;;;5.87;;
6785;SDS011;3430;51.192;6.048;2023-03-01T11:50:15;8.87;;;6.50;;
6785;SDS011;3430;51.192;6.048;2023-03-01T12:03:59;10.80;;;6.43;;
6785;SDS011;3430;51.192;6.048;2023-03-01T12:08:39;7.73;;;6.00;;
6785;SDS011;3430;51.192;6.048;2023-03-01T12:11:16;7.53;;;6.43;;
6785;SDS011;3430;51.192;6.048;2023-03-01T12:22:40;6.53;;;5.50;;
6785;SDS011;3430;51.192;6.048;2023-03-01T12:32:43;7.03;;;5.97;;
6785;SDS011;3430;51.192;6.048;2023-03-01T12:50:23;9.03;;;5.53;;
6785;SDS011;3430;51.192;6.048;2023-03-01T12:52:53;8.20;;;6.03;;
6785;SDS011;3430;51.192;6.048;2023-03-01T12:58:01;10.17;;;6.10;;
6785;SDS011;3430;51.192;6.048;2023-03-01T13:05:46;7.43;;;6.00;;
6785;SDS011;3430;51.192;6.048;2023-03-01T13:08:20;6.17;;;5.37;;
6785;SDS011;3430;51.192;6.048;2023-03-01T13:11:00;9.00;;;6.03;;
6785;SDS011;3430;51.192;6.048;2023-03-01T13:13:27;9.17;;;6.07;;
6785;SDS011;3430;51.192;6.048;2023-03-01T13:15:53;7.13;;;5.47;;
6785;SDS011;3430;51.192;6.048;2023-03-01T13:20:56;8.47;;;5.47;;
6785;SDS011;3430;51.192;6.048;2023-03-01T13:31:03;8.10;;;5.37;;
6785;SDS011;3430;51.192;6.048;2023-03-01T13:35:54;6.10;;;5.37;;
6785;SDS011;3430;51.192;6.048;2023-03-01T13:41:08;7.93;;;4.93;;
6785;SDS011;3430;51.192;6.048;2023-03-01T13:43:38;6.03;;;5.30;;
6785;SDS011;3430;51.192;6.048;2023-03-01T13:48:39;7.20;;;5.57;;
6785;SDS011;3430;51.192;6.048;2023-03-01T13:51:06;8.43;;;5.97;;
6785;SDS011;3430;51.192;6.048;2023-03-01T13:53:36;9.73;;;5.73;;
6785;SDS011;3430;51.192;6.048;2023-03-01T13:56:03;5.63;;;5.07;;
6785;SDS011;3430;51.192;6.048;2023-03-01T13:58:33;8.17;;;5.70;;
6785;SDS011;3430;51.192;6.048;2023-03-01T14:01:20;8.30;;;5.83;;
6785;SDS011;3430;51.192;6.048;2023-03-01T14:03:43;10.07;;;5.20;;
6785;SDS011;3430;51.192;6.048;2023-03-01T14:06:12;6.33;;;5.20;;
6785;SDS011;3430;51.192;6.048;2023-03-01T14:08:38;7.60;;;5.17;;
6785;SDS011;3430;51.192;6.048;2023-03-01T14:16:12;7.37;;;5.13;;
6785;SDS011;3430;51.192;6.048;2023-03-01T14:18:56;7.67;;;5.40;;
6785;SDS011;3430;51.192;6.048;2023-03-01T14:21:26;8.03;;;5.33;;
6785;SDS011;3430;51.192;6.048;2023-03-01T14:23:51;6.03;;;5.43;;
6785;SDS011;3430;51.192;6.048;2023-03-01T14:26:20;5.77;;;5.17;;
6785;SDS011;3430;51.192;6.048;2023-03-01T14:28:46;5.83;;;4.90;;
6785;SDS011;3430;51.192;6.048;2023-03-01T14:31:32;6.20;;;4.93;;
6785;SDS011;3430;51.192;6.048;2023-03-01T14:33:59;7.60;;;5.00;;
6785;SDS011;3430;51.192;6.048;2023-03-01T14:36:26;5.80;;;4.77;;
6785;SDS011;3430;51.192;6.048;2023-03-01T14:38:52;6.50;;;5.10;;
6785;SDS011;3430;51.192;6.048;2023-03-01T14:41:20;9.20;;;5.30;;
6785;SDS011;3430;51.192;6.048;2023-03-01T14:46:28;6.03;;;4.40;;
6785;SDS011;3430;51.192;6.048;2023-03-01T14:49:01;5.90;;;5.30;;
6785;SDS011;3430;51.192;6.048;2023-03-01T14:51:26;5.60;;;4.77;;
6785;SDS011;3430;51.192;6.048;2023-03-01T14:53:52;7.27;;;5.40;;
6785;SDS011;3430;51.192;6.048;2023-03-01T14:56:17;5.83;;;4.13;;
6785;SDS011;3430;51.192;6.048;2023-03-01T14:58:43;6.10;;;4.73;;
6785;SDS011;3430;51.192;6.048;2023-03-01T15:01:10;9.10;;;5.03;;
6785;SDS011;3430;51.192;6.048;2023-03-01T15:03:40;5.87;;;4.87;;
6785;SDS011;3430;51.192;6.048;2023-03-01T15:06:08;7.23;;;5.10;;
6785;SDS011;3430;51.192;6.048;2023-03-01T15:08:34;6.63;;;5.23;;
6785;SDS011;3430;51.192;6.048;2023-03-01T15:13:26;5.30;;;4.80;;
6785;SDS011;3430;51.192;6.048;2023-03-01T15:15:53;5.87;;;5.10;;
6785;SDS011;3430;51.192;6.048;2023-03-01T15:18:26;6.50;;;4.77;;
6785;SDS011;3430;51.192;6.048;2023-03-01T15:20:53;5.60;;;4.50;;
6785;SDS011;3430;51.192;6.048;2023-03-01T15:23:26;5.67;;;4.70;;
6785;SDS011;3430;51.192;6.048;2023-03-01T15:25:53;5.20;;;4.70;;
6785;SDS011;3430;51.192;6.048;2023-03-01T15:28:22;5.37;;;4.73;;
6785;SDS011;3430;51.192;6.048;2023-03-01T15:31:00;5.60;;;4.73;;
6785;SDS011;3430;51.192;6.048;2023-03-01T15:35:57;7.10;;;5.27;;
6785;SDS011;3430;51.192;6.048;2023-03-01T15:40:59;7.43;;;5.37;;
6785;SDS011;3430;51.192;6.048;2023-03-01T15:43:38;5.83;;;4.53;;
6785;SDS011;3430;51.192;6.048;2023-03-01T15:46:03;6.03;;;5.00;;
6785;SDS011;3430;51.192;6.048;2023-03-01T15:48:29;6.73;;;5.20;;
6785;SDS011;3430;51.192;6.048;2023-03-01T15:50:55;9.23;;;4.53;;
6785;SDS011;3430;51.192;6.048;2023-03-01T15:53:22;7.37;;;4.83;;
6785;SDS011;3430;51.192;6.048;2023-03-01T15:55:48;5.77;;;4.43;;
6785;SDS011;3430;51.192;6.048;2023-03-01T15:58:16;8.43;;;4.47;;
6785;SDS011;3430;51.192;6.048;2023-03-01T16:00:42;7.33;;;4.87;;
6785;SDS011;3430;51.192;6.048;2023-03-01T16:03:08;4.80;;;4.20;;
6785;SDS011;3430;51.192;6.048;2023-03-01T16:05:35;6.63;;;4.67;;
6785;SDS011;3430;51.192;6.048;2023-03-01T16:08:04;9.30;;;5.23;;
6785;SDS011;3430;51.192;6.048;2023-03-01T16:10:31;6.10;;;4.57;;
6785;SDS011;3430;51.192;6.048;2023-03-01T16:12:56;6.87;;;4.77;;
6785;SDS011;3430;51.192;6.048;2023-03-01T16:15:29;6.93;;;5.23;;
6785;SDS011;3430;51.192;6.048;2023-03-01T16:17:55;5.80;;;4.73;;
6785;SDS011;3430;51.192;6.048;2023-03-01T16:20:22;8.57;;;5.03;;
6785;SDS011;3430;51.192;6.048;2023-03-01T16:22:48;5.30;;;4.53;;
6785;SDS011;3430;51.192;6.048;2023-03-01T16:25:14;8.07;;;4.90;;
6785;SDS011;3430;51.192;6.048;2023-03-01T16:27:43;7.27;;;4.53;;
6785;SDS011;3430;51.192;6.048;2023-03-01T16:30:10;5.63;;;4.33;;
6785;SDS011;3430;51.192;6.048;2023-03-01T16:32:39;5.53;;;4.77;;
6785;SDS011;3430;51.192;6.048;2023-03-01T16:35:08;6.10;;;4.50;;
6785;SDS011;3430;51.192;6.048;2023-03-01T16:37:34;6.47;;;5.03;;
6785;SDS011;3430;51.192;6.048;2023-03-01T16:39:59;8.27;;;4.73;;
6785;SDS011;3430;51.192;6.048;2023-03-01T16:42:25;5.73;;;4.90;;
6785;SDS011;3430;51.192;6.048;2023-03-01T16:44:54;8.67;;;5.17;;
6785;SDS011;3430;51.192;6.048;2023-03-01T16:47:20;8.33;;;3.97;;
6785;SDS011;3430;51.192;6.048;2023-03-01T16:49:45;5.37;;;4.77;;
6785;SDS011;3430;51.192;6.048;2023-03-01T16:52:10;6.83;;;4.27;;
6785;SDS011;3430;51.192;6.048;2023-03-01T16:54:36;4.87;;;4.27;;
6785;SDS011;3430;51.192;6.048;2023-03-01T16:57:01;6.70;;;4.90;;
6785;SDS011;3430;51.192;6.048;2023-03-01T16:59:27;8.13;;;4.67;;
6785;SDS011;3430;51.192;6.048;2023-03-01T17:01:52;5.00;;;4.37;;
6785;SDS011;3430;51.192;6.048;2023-03-01T17:04:17;5.50;;;4.37;;
6785;SDS011;3430;51.192;6.048;2023-03-01T17:06:43;7.47;;;4.60;;
6785;SDS011;3430;51.192;6.048;2023-03-01T17:09:08;4.80;;;4.10;;
6785;SDS011;3430;51.192;6.048;2023-03-01T17:11:35;5.10;;;4.00;;
6785;SDS011;3430;51.192;6.048;2023-03-01T17:14:00;7.80;;;4.50;;
6785;SDS011;3430;51.192;6.048;2023-03-01T17:16:25;6.70;;;4.60;;
6785;SDS011;3430;51.192;6.048;2023-03-01T17:18:52;6.10;;;4.20;;
6785;SDS011;3430;51.192;6.048;2023-03-01T17:21:17;5.63;;;4.50;;
6785;SDS011;3430;51.192;6.048;2023-03-01T17:23:43;5.47;;;4.47;;
6785;SDS011;3430;51.192;6.048;2023-03-01T17:26:08;8.80;;;4.13;;
6785;SDS011;3430;51.192;6.048;2023-03-01T17:28:34;5.33;;;4.50;;
6785;SDS011;3430;51.192;6.048;2023-03-01T17:31:00;9.53;;;4.47;;